Time;durP1;ratioP1;P1;durP2;ratioP2;P2;SDS_P1;SDS_P2;PMS_P1;PMS_P2;Temp;Humidity;BMP_temperature;BMP_pressure;BME280_temperature;BME280_humidity;BME280_pressure;Samples;Min_cycle;Max_cycle;Signal;HPM_P1;HPM_P2
2022/02/17 00:00:24;;;;;;;22.43;21.43;;;20.10;83.00;;;;;;5072874;28;20464;-40
2022/02/17 00:02:53;;;;;;;22.10;21.20;;;20.00;83.20;;;;;;5072642;28;20834;-41
2022/02/17 00:05:20;;;;;;;21.97;21.07;;;20.00;82.80;;;;;;5072635;28;20448;-40
2022/02/17 00:07:47;;;;;;;21.93;21.03;;;20.00;83.10;;;;;;5072822;28;20443;-40
2022/02/17 00:10:16;;;;;;;22.50;21.50;;;19.90;83.20;;;;;;5072693;28;20460;-40
2022/02/17 00:12:44;;;;;;;22.30;21.40;;;19.90;83.70;;;;;;5072371;28;20479;-40
2022/02/17 00:15:11;;;;;;;22.73;21.73;;;19.90;83.90;;;;;;5072691;28;20443;-41
2022/02/17 00:17:38;;;;;;;21.83;20.93;;;19.80;84.40;;;;;;5072539;28;20763;-40
2022/02/17 00:20:06;;;;;;;22.50;21.50;;;19.80;83.90;;;;;;5072393;28;20468;-40
2022/02/17 00:22:33;;;;;;;22.10;21.20;;;19.80;85.30;;;;;;5072260;28;20470;-40
2022/02/17 00:24:59;;;;;;;22.50;21.50;;;19.70;84.70;;;;;;5072537;28;20448;-40
2022/02/17 00:27:28;;;;;;;22.50;21.50;;;19.70;84.40;;;;;;5072455;28;20448;-41
2022/02/17 00:29:54;;;;;;;22.73;21.63;;;19.70;84.50;;;;;;5072057;28;20468;-41
2022/02/17 00:32:21;;;;;;;22.33;21.43;;;19.60;85.00;;;;;;5071281;28;20451;-40
2022/02/17 00:34:48;;;;;;;22.20;21.20;;;19.60;85.80;;;;;;5072246;28;20443;-39
2022/02/17 00:37:14;;;;;;;23.23;22.20;;;19.60;86.10;;;;;;5071996;28;20461;-40
2022/02/17 00:39:41;;;;;;;22.70;21.70;;;19.50;86.60;;;;;;5071859;28;20527;-39
2022/02/17 00:42:08;;;;;;;21.80;20.90;;;19.50;87.40;;;;;;5072175;28;20463;-40
2022/02/17 00:44:36;;;;;;;22.00;21.10;;;19.50;87.30;;;;;;5071812;28;20440;-40
2022/02/17 00:47:03;;;;;;;21.90;20.90;;;19.50;88.20;;;;;;5072083;28;20443;-39
2022/02/17 00:49:30;;;;;;;22.50;21.50;;;19.40;88.20;;;;;;5071857;28;20475;-40
2022/02/17 00:51:57;;;;;;;22.50;21.50;;;19.40;89.70;;;;;;5071856;28;20810;-40
2022/02/17 00:54:24;;;;;;;22.00;21.10;;;19.40;90.10;;;;;;5051882;28;20491;-40
2022/02/17 00:56:51;;;;;;;21.90;21.00;;;19.30;89.80;;;;;;5051916;28;20455;-40
2022/02/17 00:59:18;;;;;;;21.90;21.00;;;19.30;90.00;;;;;;5051701;28;20479;-40
2022/02/17 01:01:47;;;;;;;22.10;21.20;;;19.30;90.30;;;;;;5051958;28;20445;-40
2022/02/17 01:04:14;;;;;;;22.50;21.53;;;19.20;90.50;;;;;;5070595;28;20869;-40
2022/02/17 01:06:41;;;;;;;22.80;21.80;;;19.20;90.20;;;;;;5071736;28;20443;-40
2022/02/17 01:09:08;;;;;;;22.17;21.17;;;19.20;91.10;;;;;;5071516;28;20470;-40
2022/02/17 01:11:35;;;;;;;21.90;21.00;;;19.10;91.10;;;;;;5071789;28;20451;-40
2022/02/17 01:14:02;;;;;;;22.27;21.30;;;19.10;91.30;;;;;;5071265;28;20475;-40
2022/02/17 01:16:29;;;;;;;22.57;21.57;;;19.10;91.40;;;;;;5071764;28;20443;-40
2022/02/17 01:18:57;;;;;;;22.20;21.23;;;19.10;91.70;;;;;;5071221;28;20459;-40
2022/02/17 01:21:24;;;;;;;22.43;21.43;;;19.00;91.90;;;;;;5071740;28;20791;-40
2022/02/17 01:23:50;;;;;;;22.70;21.70;;;19.00;91.80;;;;;;5071299;28;20447;-39
2022/02/17 01:26:18;;;;;;;22.43;21.50;;;19.00;92.00;;;;;;5071610;28;20807;-40
2022/02/17 01:28:45;;;;;;;22.40;21.50;;;18.90;92.70;;;;;;5071344;28;20469;-39
2022/02/17 01:31:12;;;;;;;22.40;21.40;;;18.90;92.80;;;;;;5071490;28;20439;-40
2022/02/17 01:33:38;;;;;;;22.27;21.30;;;18.80;93.00;;;;;;5071302;28;20483;-39
2022/02/17 01:36:07;;;;;;;22.17;21.17;;;18.80;93.00;;;;;;5071544;28;20444;-39
2022/02/17 01:38:35;;;;;;;22.30;21.30;;;18.70;93.40;;;;;;5071128;28;20475;-40
2022/02/17 01:41:02;;;;;;;23.53;22.30;;;18.70;93.60;;;;;;5071411;28;20444;-39
2022/02/17 01:43:28;;;;;;;22.57;21.57;;;18.70;94.00;;;;;;5071557;28;20454;-39
2022/02/17 01:45:55;;;;;;;22.13;21.23;;;18.60;94.40;;;;;;5075464;28;20446;-39
2022/02/17 01:48:22;;;;;;;22.67;21.67;;;18.60;94.60;;;;;;5075297;28;20451;-40
2022/02/17 01:50:49;;;;;;;21.97;21.07;;;18.60;94.60;;;;;;5075376;28;20577;-39
2022/02/17 01:53:17;;;;;;;21.67;20.77;;;18.60;95.10;;;;;;5074855;28;20479;-39
2022/02/17 01:55:47;;;;;;;22.20;21.20;;;18.50;95.00;;;;;;5075308;28;20447;-40
2022/02/17 01:58:14;;;;;;;22.40;21.40;;;18.50;94.70;;;;;;5075033;28;20439;-39
2022/02/17 02:00:42;;;;;;;22.40;21.40;;;18.50;95.10;;;;;;5075167;28;21048;-39
2022/02/17 02:03:09;;;;;;;23.20;22.20;;;18.50;95.20;;;;;;5075003;28;20972;-40
2022/02/17 02:05:36;;;;;;;21.90;20.90;;;18.50;95.20;;;;;;5075110;28;20439;-39
2022/02/17 02:08:04;;;;;;;22.03;21.13;;;18.50;95.50;;;;;;5075059;28;20447;-39
2022/02/17 02:10:32;;;;;;;22.40;21.40;;;18.40;95.80;;;;;;5075010;28;20463;-39
2022/02/17 02:13:00;;;;;;;22.37;21.37;;;18.40;95.60;;;;;;5074619;28;20443;-39
2022/02/17 02:15:28;;;;;;;22.43;21.43;;;18.40;95.70;;;;;;5074666;28;20950;-39
2022/02/17 02:17:55;;;;;;;22.20;21.20;;;18.40;95.90;;;;;;5074479;28;20443;-40
2022/02/17 02:20:23;;;;;;;23.50;22.40;;;18.30;96.50;;;;;;5074668;28;20469;-40
2022/02/17 02:22:49;;;;;;;23.20;22.20;;;18.30;96.10;;;;;;5074710;28;20439;-39
2022/02/17 02:25:16;;;;;;;22.50;21.50;;;18.30;96.20;;;;;;5074804;28;20447;-40
2022/02/17 02:27:43;;;;;;;22.13;21.13;;;18.30;96.00;;;;;;5074276;28;20465;-40
2022/02/17 02:30:10;;;;;;;22.80;21.80;;;18.20;96.00;;;;;;5074540;28;20475;-39
2022/02/17 02:32:37;;;;;;;22.70;21.67;;;18.20;96.30;;;;;;5074418;28;20825;-39
2022/02/17 02:35:04;;;;;;;22.50;21.37;;;18.20;96.70;;;;;;5074447;28;20502;-40
2022/02/17 02:37:32;;;;;;;23.33;22.23;;;18.20;96.70;;;;;;5074401;28;20463;-40
2022/02/17 02:39:59;;;;;;;22.40;21.40;;;18.20;96.50;;;;;;5074285;28;20459;-39
2022/02/17 02:42:26;;;;;;;22.40;21.40;;;18.10;96.50;;;;;;5074163;28;20435;-40
2022/02/17 02:44:53;;;;;;;22.53;21.53;;;18.10;96.70;;;;;;5074392;28;20443;-39
2022/02/17 02:47:20;;;;;;;22.43;21.43;;;18.10;96.70;;;;;;5074435;28;20475;-39
2022/02/17 02:49:47;;;;;;;22.73;21.73;;;18.00;96.70;;;;;;5074108;28;20474;-40
2022/02/17 02:52:14;;;;;;;23.00;21.90;;;18.00;97.00;;;;;;5074074;28;20822;-39
2022/02/17 02:54:42;;;;;;;22.50;21.50;;;18.00;97.00;;;;;;5074143;28;20482;-39
2022/02/17 02:57:09;;;;;;;22.63;21.60;;;17.90;96.90;;;;;;5073500;28;20819;-40
2022/02/17 02:59:36;;;;;;;23.63;22.43;;;18.00;96.70;;;;;;5073868;28;20993;-39
2022/02/17 03:02:03;;;;;;;23.00;21.90;;;18.00;96.90;;;;;;5073809;28;20943;-39
2022/02/17 03:04:29;;;;;;;23.53;22.17;;;17.90;96.80;;;;;;5074099;28;20942;-39
2022/02/17 03:06:56;;;;;;;22.80;21.70;;;17.90;96.90;;;;;;5074007;28;20447;-39
2022/02/17 03:09:23;;;;;;;23.33;22.07;;;17.90;96.80;;;;;;5073719;28;20459;-39
2022/02/17 03:11:51;;;;;;;22.40;21.20;;;17.80;96.90;;;;;;5073764;28;20458;-39
2022/02/17 03:14:18;;;;;;;22.27;21.27;;;17.80;97.00;;;;;;5073917;28;20514;-39
2022/02/17 03:16:45;;;;;;;22.37;21.37;;;17.80;97.00;;;;;;5073849;28;20448;-40
2022/02/17 03:19:13;;;;;;;22.43;21.27;;;17.70;97.30;;;;;;5073526;28;20470;-39
2022/02/17 03:21:40;;;;;;;22.23;21.27;;;17.70;97.20;;;;;;5073554;28;20471;-39
2022/02/17 03:24:07;;;;;;;22.43;21.33;;;17.70;97.30;;;;;;5073771;28;20782;-39
2022/02/17 03:26:34;;;;;;;22.77;21.70;;;17.70;97.40;;;;;;5073213;28;20455;-39
2022/02/17 03:29:03;;;;;;;22.27;21.23;;;17.70;97.50;;;;;;5073250;28;20463;-39
2022/02/17 03:31:30;;;;;;;22.43;21.30;;;17.70;97.50;;;;;;5073410;28;20831;-39
2022/02/17 03:33:57;;;;;;;22.60;21.60;;;17.60;97.30;;;;;;5073412;28;20483;-39
2022/02/17 03:36:24;;;;;;;22.00;21.00;;;17.60;97.40;;;;;;5073548;28;20444;-39
2022/02/17 03:38:51;;;;;;;23.53;22.20;;;17.60;97.50;;;;;;5073117;28;20854;-39
2022/02/17 03:41:17;;;;;;;23.27;21.97;;;17.50;97.50;;;;;;5072902;28;20455;-39
2022/02/17 03:43:44;;;;;;;23.33;22.23;;;17.50;97.60;;;;;;5072852;28;20470;-39
2022/02/17 03:46:12;;;;;;;22.50;21.40;;;17.50;97.20;;;;;;5073289;28;20530;-39
2022/02/17 03:48:39;;;;;;;22.80;21.60;;;17.50;97.10;;;;;;5072993;28;20974;-41
2022/02/17 03:51:06;;;;;;;22.30;21.30;;;17.50;97.30;;;;;;5072942;28;20443;-40
2022/02/17 03:53:32;;;;;;;23.10;21.90;;;17.50;97.40;;;;;;5073172;28;20458;-39
2022/02/17 03:55:59;;;;;;;23.03;21.83;;;17.50;97.30;;;;;;5073021;28;20934;-40
2022/02/17 04:01:10;;;;;;;23.40;22.00;;;17.50;97.10;;;;;;5065306;28;20435;-40
2022/02/17 04:03:38;;;;;;;22.77;21.77;;;17.50;96.90;;;;;;5072868;28;20438;-39
2022/02/17 04:06:05;;;;;;;23.33;22.03;;;17.50;96.60;;;;;;5072984;28;20443;-39
2022/02/17 04:08:31;;;;;;;23.20;21.90;;;17.50;96.70;;;;;;5071598;28;20490;-39
2022/02/17 04:11:02;;;;;;;22.70;21.67;;;17.50;96.50;;;;;;5072520;28;20439;-39
2022/02/17 04:13:29;;;;;;;22.97;21.87;;;17.50;96.20;;;;;;5072736;28;20530;-39
2022/02/17 04:15:56;;;;;;;22.77;21.67;;;17.40;96.40;;;;;;5072575;28;20443;-39
2022/02/17 04:18:23;;;;;;;22.40;21.40;;;17.40;96.40;;;;;;5072376;28;20447;-39
2022/02/17 04:20:51;;;;;;;22.60;21.23;;;17.50;95.90;;;;;;5072279;28;20438;-39
2022/02/17 04:23:17;;;;;;;22.20;21.20;;;17.50;95.80;;;;;;5072278;28;20450;-39
2022/02/17 04:25:44;;;;;;;22.70;21.50;;;17.40;95.70;;;;;;5072478;28;20942;-39
2022/02/17 04:28:11;;;;;;;22.50;21.40;;;17.40;95.80;;;;;;5072240;28;20444;-40
2022/02/17 04:30:38;;;;;;;22.63;21.43;;;17.40;95.80;;;;;;5072125;28;20525;-40
2022/02/17 04:33:05;;;;;;;22.17;21.13;;;17.40;95.30;;;;;;5072247;28;20447;-39
2022/02/17 04:35:31;;;;;;;23.00;21.70;;;17.40;95.40;;;;;;5072318;28;20494;-39
2022/02/17 04:38:00;;;;;;;21.87;20.87;;;17.40;95.10;;;;;;5071956;28;20851;-39
2022/02/17 04:43:07;;;;;;;22.10;21.07;;;17.40;95.20;;;;;;5071503;28;20431;-39
2022/02/17 04:45:34;;;;;;;22.23;21.17;;;17.40;95.50;;;;;;5072199;28;20811;-39
2022/02/17 04:48:03;;;;;;;22.60;21.50;;;17.40;95.60;;;;;;5071941;28;20440;-39
2022/02/17 04:50:30;;;;;;;22.27;21.27;;;17.40;95.50;;;;;;5071736;28;20460;-39
2022/02/17 04:52:57;;;;;;;21.63;20.63;;;17.40;95.80;;;;;;5071928;28;20440;-39
2022/02/17 04:55:26;;;;;;;22.20;21.10;;;17.40;95.80;;;;;;5071874;28;20479;-39
2022/02/17 04:57:52;;;;;;;22.90;21.80;;;17.40;95.70;;;;;;5071722;28;20455;-39
2022/02/17 05:00:19;;;;;;;22.93;21.77;;;17.40;96.00;;;;;;5071632;28;20477;-40
2022/02/17 05:02:46;;;;;;;22.53;21.53;;;17.30;96.00;;;;;;5071632;28;20455;-39
2022/02/17 05:05:13;;;;;;;22.57;21.47;;;17.40;96.20;;;;;;5071838;28;20447;-41
2022/02/17 05:07:40;;;;;;;22.57;21.40;;;17.40;96.00;;;;;;5071854;28;20444;-39
2022/02/17 05:10:07;;;;;;;21.93;20.83;;;17.30;96.00;;;;;;5071561;28;20463;-39
2022/02/17 05:12:36;;;;;;;21.70;20.70;;;17.30;95.80;;;;;;5071456;28;20448;-39
2022/02/17 05:15:02;;;;;;;22.37;21.23;;;17.30;96.40;;;;;;5071574;28;20486;-39
2022/02/17 05:17:29;;;;;;;22.63;21.27;;;17.30;96.00;;;;;;5071691;28;20454;-39
2022/02/17 05:19:56;;;;;;;23.27;21.97;;;17.30;95.90;;;;;;5071080;28;20828;-39
2022/02/17 05:22:22;;;;;;;22.00;20.80;;;17.30;96.10;;;;;;5071169;28;20488;-39
2022/02/17 05:24:49;;;;;;;22.80;21.67;;;17.30;96.20;;;;;;5071641;28;20444;-39
2022/02/17 05:27:16;;;;;;;22.43;21.37;;;17.30;96.10;;;;;;5071464;28;20451;-39
2022/02/17 05:29:44;;;;;;;22.10;21.00;;;17.30;96.20;;;;;;5071288;28;20468;-39
2022/02/17 05:32:11;;;;;;;22.30;21.03;;;17.20;96.20;;;;;;5071320;28;20447;-39
2022/02/17 05:34:37;;;;;;;22.80;21.50;;;17.20;95.90;;;;;;5071403;28;20482;-39
2022/02/17 05:37:04;;;;;;;25.10;23.50;;;17.20;96.90;;;;;;5071337;28;20451;-39
2022/02/17 05:39:32;;;;;;;23.40;21.80;;;17.20;98.70;;;;;;5071353;28;20921;-39
2022/02/17 05:42:00;;;;;;;24.87;22.93;;;17.30;99.90;;;;;;5071181;28;20443;-39
2022/02/17 05:44:26;;;;;;;26.10;23.87;;;17.30;99.90;;;;;;5071418;28;20873;-40
2022/02/17 05:46:54;;;;;;;24.17;22.20;;;17.30;99.90;;;;;;5071462;28;20448;-40
2022/02/17 05:49:21;;;;;;;25.00;23.70;;;17.30;99.90;;;;;;5071155;28;20463;-39
2022/02/17 05:51:48;;;;;;;24.63;22.67;;;17.40;99.90;;;;;;5071689;28;20444;-40
2022/02/17 05:54:14;;;;;;;24.43;22.50;;;17.60;99.90;;;;;;5070765;28;20475;-46
2022/02/17 05:56:41;;;;;;;26.40;24.10;;;17.80;99.90;;;;;;5071128;28;20447;-45
2022/02/17 05:59:08;;;;;;;25.83;23.83;;;18.00;99.90;;;;;;5070790;28;20458;-43
2022/02/17 06:01:35;;;;;;;24.90;23.00;;;18.20;99.90;;;;;;5071495;28;20443;-41
2022/02/17 06:04:03;;;;;;;23.43;21.83;;;18.40;99.90;;;;;;5071578;28;20439;-41
2022/02/17 06:06:30;;;;;;;25.10;23.40;;;18.50;99.90;;;;;;5071151;28;20814;-43
2022/02/17 06:08:56;;;;;;;24.73;22.90;;;18.70;99.90;;;;;;5070881;28;21009;-40
2022/02/17 06:11:23;;;;;;;22.83;21.37;;;18.80;98.40;;;;;;5071060;28;20544;-42
2022/02/17 06:13:50;;;;;;;23.17;21.57;;;18.80;97.00;;;;;;5071162;28;20453;-43
2022/02/17 06:16:17;;;;;;;23.57;21.90;;;18.90;96.30;;;;;;5071124;28;20486;-41
2022/02/17 06:18:43;;;;;;;23.77;22.13;;;19.00;95.60;;;;;;5070835;28;21037;-43
2022/02/17 06:21:11;;;;;;;23.93;22.30;;;19.10;95.30;;;;;;5071073;28;20443;-44
2022/02/17 06:23:38;;;;;;;24.30;23.00;;;19.20;93.70;;;;;;5071019;28;20444;-41
2022/02/17 06:26:05;;;;;;;24.47;23.27;;;19.30;93.30;;;;;;5070991;28;20436;-42
2022/02/17 06:28:32;;;;;;;27.13;25.67;;;19.30;92.50;;;;;;5070702;28;20464;-41
2022/02/17 06:30:58;;;;;;;27.10;25.50;;;19.40;90.80;;;;;;5072146;28;20450;-42
2022/02/17 06:33:25;;;;;;;28.60;27.10;;;19.60;89.60;;;;;;5074554;28;20447;-41
2022/02/17 06:35:52;;;;;;;28.07;26.67;;;19.60;87.30;;;;;;5074513;28;20487;-41
2022/02/17 06:38:20;;;;;;;29.67;28.13;;;19.60;86.80;;;;;;5074109;28;20466;-41
2022/02/17 06:40:47;;;;;;;29.80;28.20;;;19.70;86.50;;;;;;5074421;28;20931;-43
2022/02/17 06:43:15;;;;;;;28.63;27.17;;;19.70;84.30;;;;;;5074446;28;20451;-41
2022/02/17 06:45:43;;;;;;;32.40;30.37;;;19.70;83.00;;;;;;5074350;28;20946;-41
2022/02/17 06:48:10;;;;;;;29.93;28.50;;;19.70;82.60;;;;;;5074228;28;20466;-43
2022/02/17 06:50:37;;;;;;;29.50;27.90;;;19.70;81.70;;;;;;5074160;28;20466;-43
2022/02/17 06:53:06;;;;;;;28.53;27.23;;;19.70;81.50;;;;;;5074467;28;20451;-42
2022/02/17 06:55:34;;;;;;;28.67;27.07;;;19.70;79.90;;;;;;5074205;28;20483;-41
2022/02/17 06:58:01;;;;;;;26.63;25.37;;;19.70;79.10;;;;;;5074075;28;20505;-46
2022/02/17 07:00:28;;;;;;;29.13;27.73;;;19.70;78.20;;;;;;5073978;28;20463;-41
2022/02/17 07:02:56;;;;;;;28.53;27.13;;;19.60;77.80;;;;;;5074169;28;20440;-41
2022/02/17 07:05:25;;;;;;;29.03;27.53;;;19.60;76.30;;;;;;5074364;28;20801;-41
2022/02/17 07:07:52;;;;;;;28.20;26.80;;;19.60;75.40;;;;;;5073726;28;20443;-41
2022/02/17 07:10:54;;;;;;;28.30;26.90;;;19.60;75.60;;;;;;5073769;28;20471;-42
2022/02/17 07:13:07;;;;;;;26.70;25.30;;;19.60;76.00;;;;;;5073936;28;20468;-41
2022/02/17 07:15:35;;;;;;;25.93;24.50;;;19.60;75.40;;;;;;5073735;28;20487;-41
2022/02/17 07:18:03;;;;;;;26.30;24.70;;;19.60;74.90;;;;;;5073718;28;20576;-43
2022/02/17 07:20:30;;;;;;;26.73;25.33;;;19.60;73.10;;;;;;5073686;28;20468;-48
2022/02/17 07:22:57;;;;;;;27.40;26.00;;;19.60;72.70;;;;;;5073705;28;20530;-45
2022/02/17 07:25:25;;;;;;;27.40;26.10;;;19.60;72.30;;;;;;5073828;28;20448;-44
2022/02/17 07:27:51;;;;;;;27.27;25.87;;;19.60;70.70;;;;;;5073534;28;20452;-47
2022/02/17 07:30:20;;;;;;;27.73;26.30;;;19.60;69.60;;;;;;5073400;28;20456;-44
2022/02/17 07:32:46;;;;;;;27.70;26.30;;;19.60;68.70;;;;;;5073603;28;20443;-47
2022/02/17 07:35:14;;;;;;;25.87;24.57;;;19.60;68.30;;;;;;5073491;28;20479;-43
2022/02/17 07:37:41;;;;;;;27.47;25.77;;;19.50;68.40;;;;;;5073198;28;20466;-43
2022/02/17 07:40:09;;;;;;;25.10;23.73;;;19.50;68.60;;;;;;5073305;28;20490;-44
2022/02/17 07:42:36;;;;;;;24.03;22.70;;;19.40;69.20;;;;;;5073153;28;20451;-44
2022/02/17 07:45:03;;;;;;;24.53;23.23;;;19.40;69.20;;;;;;5073336;28;20442;-42
2022/02/17 07:47:32;;;;;;;24.47;23.20;;;19.40;69.30;;;;;;5073418;28;20470;-44
2022/02/17 07:49:58;;;;;;;24.27;22.87;;;19.30;69.40;;;;;;5073020;28;20826;-43
2022/02/17 07:52:25;;;;;;;24.03;22.67;;;19.30;69.50;;;;;;5073198;28;20443;-42
2022/02/17 07:54:52;;;;;;;25.13;23.73;;;19.30;69.60;;;;;;5073192;28;20479;-45
2022/02/17 07:57:19;;;;;;;25.57;24.27;;;19.30;70.00;;;;;;5073052;28;20450;-43
2022/02/17 07:59:46;;;;;;;24.77;23.47;;;19.30;69.30;;;;;;5072779;28;20464;-42
2022/02/17 08:02:13;;;;;;;25.33;23.87;;;19.30;69.00;;;;;;5073095;28;20792;-44
2022/02/17 08:04:41;;;;;;;26.50;25.00;;;19.30;69.30;;;;;;5072939;28;20444;-42
2022/02/17 08:07:08;;;;;;;26.30;24.90;;;19.30;68.10;;;;;;5072803;28;20444;-41
2022/02/17 08:09:36;;;;;;;26.37;25.07;;;19.30;68.30;;;;;;5072524;28;20841;-43
2022/02/17 08:12:04;;;;;;;25.50;24.20;;;19.20;67.30;;;;;;5072770;28;20504;-41
2022/02/17 08:14:31;;;;;;;28.70;27.13;;;19.20;67.70;;;;;;5072752;28;20443;-42
2022/02/17 08:16:57;;;;;;;28.33;26.50;;;19.20;67.70;;;;;;5072603;28;20480;-42
2022/02/17 08:19:24;;;;;;;26.80;25.50;;;19.20;67.90;;;;;;5072256;28;20479;-43
2022/02/17 08:21:52;;;;;;;27.77;26.30;;;19.20;67.20;;;;;;5072515;28;20817;-42
2022/02/17 08:24:19;;;;;;;28.50;27.10;;;19.10;66.70;;;;;;5072567;28;20961;-43
2022/02/17 08:26:46;;;;;;;27.30;25.70;;;19.00;66.50;;;;;;5072488;28;20459;-41
2022/02/17 08:29:12;;;;;;;26.90;25.20;;;19.00;67.00;;;;;;5072178;28;20974;-42
2022/02/17 08:31:40;;;;;;;27.50;25.80;;;19.00;67.60;;;;;;5072291;28;20454;-41
2022/02/17 08:34:08;;;;;;;24.87;23.57;;;19.00;67.30;;;;;;5072319;28;20458;-43
2022/02/17 08:36:36;;;;;;;28.57;27.07;;;18.90;67.60;;;;;;5072101;28;20852;-41
2022/02/17 08:39:06;;;;;;;26.50;25.27;;;18.90;67.70;;;;;;5071840;28;20479;-41
2022/02/17 08:41:33;;;;;;;27.07;25.57;;;19.00;67.20;;;;;;5072223;28;20524;-42
2022/02/17 08:44:00;;;;;;;25.10;23.90;;;19.00;66.30;;;;;;5072143;28;20444;-44
2022/02/17 08:46:26;;;;;;;24.47;23.17;;;19.10;66.80;;;;;;5072126;28;20967;-42
2022/02/17 08:48:53;;;;;;;26.13;24.83;;;19.10;66.50;;;;;;5071801;28;20475;-41
2022/02/17 08:51:22;;;;;;;27.73;26.17;;;19.20;65.80;;;;;;5072006;28;20802;-43
2022/02/17 08:53:49;;;;;;;26.93;25.53;;;19.20;65.40;;;;;;5071522;28;20538;-41
2022/02/17 08:56:17;;;;;;;27.27;25.90;;;19.20;64.40;;;;;;5071892;28;20997;-42
2022/02/17 08:58:44;;;;;;;27.50;26.10;;;19.30;64.00;;;;;;5071609;28;20498;-41
2022/02/17 09:01:11;;;;;;;26.87;25.27;;;19.40;63.00;;;;;;5072094;28;20454;-41
2022/02/17 09:03:37;;;;;;;23.47;22.27;;;19.40;62.50;;;;;;5071800;28;20505;-43
2022/02/17 09:06:04;;;;;;;25.03;23.80;;;19.40;62.30;;;;;;5071870;28;20444;-43
2022/02/17 09:08:31;;;;;;;27.50;25.80;;;19.40;63.00;;;;;;5071536;28;20448;-41
2022/02/17 09:10:58;;;;;;;24.57;23.37;;;19.40;62.40;;;;;;5071773;28;20450;-41
2022/02/17 09:13:26;;;;;;;25.40;24.00;;;19.40;61.80;;;;;;5071831;28;20443;-43
2022/02/17 09:15:53;;;;;;;26.83;25.30;;;19.40;60.90;;;;;;5071733;28;20483;-42
2022/02/17 09:18:20;;;;;;;26.33;24.93;;;19.40;61.00;;;;;;5071442;28;20807;-43
2022/02/17 09:20:46;;;;;;;27.30;25.90;;;19.50;60.20;;;;;;5071693;28;20470;-41
2022/02/17 09:23:13;;;;;;;26.90;25.50;;;19.50;59.20;;;;;;5071656;28;20451;-43
2022/02/17 09:25:40;;;;;;;25.83;24.57;;;19.50;58.90;;;;;;5071493;28;20446;-43
2022/02/17 09:28:08;;;;;;;24.70;23.30;;;19.50;58.90;;;;;;5071471;28;20464;-45
2022/02/17 09:30:37;;;;;;;25.80;24.13;;;19.50;58.40;;;;;;5071420;28;20822;-43
2022/02/17 09:33:04;;;;;;;27.13;25.73;;;19.50;58.60;;;;;;5071524;28;20470;-43
2022/02/17 09:35:31;;;;;;;23.37;22.27;;;19.50;58.40;;;;;;5071444;28;20476;-41
2022/02/17 09:37:58;;;;;;;25.73;24.43;;;19.50;58.20;;;;;;5071271;28;20456;-42
2022/02/17 09:40:25;;;;;;;25.47;24.03;;;19.50;58.00;;;;;;5071314;28;20809;-42
2022/02/17 09:42:51;;;;;;;26.40;24.90;;;19.50;57.70;;;;;;5071392;28;20450;-45
2022/02/17 09:45:20;;;;;;;24.83;23.50;;;19.50;57.60;;;;;;5071344;28;20454;-40
2022/02/17 09:47:48;;;;;;;25.40;24.20;;;19.50;58.00;;;;;;5071218;28;20458;-41
2022/02/17 09:50:17;;;;;;;24.60;23.20;;;19.50;58.10;;;;;;5071224;28;20468;-42
2022/02/17 09:52:44;;;;;;;27.20;25.80;;;19.40;58.30;;;;;;5071284;28;20473;-42
2022/02/17 09:55:13;;;;;;;25.20;24.00;;;19.50;58.20;;;;;;5071317;28;20446;-41
2022/02/17 09:57:41;;;;;;;25.00;23.77;;;19.60;58.70;;;;;;5071183;28;20447;-41
2022/02/17 10:00:11;;;;;;;25.30;23.90;;;19.60;57.60;;;;;;5071062;28;20470;-45
2022/02/17 10:02:38;;;;;;;24.00;22.80;;;19.70;57.40;;;;;;5071135;28;20448;-43
2022/02/17 10:05:11;;;;;;;25.27;23.97;;;19.70;56.90;;;;;;5072731;28;20810;-43
2022/02/17 10:07:39;;;;;;;26.70;25.40;;;19.60;57.00;;;;;;5075333;28;20814;-41
2022/02/17 10:10:09;;;;;;;25.20;24.00;;;19.70;56.50;;;;;;5074998;28;20467;-41
2022/02/17 10:12:54;;;;;;;25.77;24.43;;;19.80;56.30;;;;;;5075165;28;20491;-43
2022/02/17 10:15:28;;;;;;;26.70;25.10;;;19.80;55.90;;;;;;5074982;28;20463;-42
2022/02/17 10:18:03;;;;;;;25.30;23.80;;;19.80;56.10;;;;;;5074797;28;20439;-41
2022/02/17 10:20:55;;;;;;;24.70;23.30;;;19.80;55.90;;;;;;5074774;28;20463;-41
2022/02/17 10:23:23;;;;;;;25.73;24.40;;;19.90;56.30;;;;;;5074777;28;20969;-41
2022/02/17 10:26:04;;;;;;;27.00;25.50;;;19.80;56.00;;;;;;5074793;28;20440;-42
2022/02/17 10:28:35;;;;;;;26.70;25.30;;;19.80;55.20;;;;;;5074458;28;20494;-41
2022/02/17 10:31:02;;;;;;;27.77;26.27;;;19.70;55.00;;;;;;5074702;28;20455;-41
2022/02/17 10:33:43;;;;;;;25.67;24.27;;;19.70;54.90;;;;;;5074646;28;20959;-41
2022/02/17 10:36:13;;;;;;;27.47;26.10;;;19.70;54.70;;;;;;5074537;28;21028;-43
2022/02/17 10:38:40;;;;;;;26.80;25.40;;;19.60;54.70;;;;;;5074207;28;20478;-41
2022/02/17 10:41:07;;;;;;;28.00;26.60;;;19.60;54.30;;;;;;5074556;28;20443;-41
2022/02/17 10:43:34;;;;;;;25.00;23.60;;;19.60;54.20;;;;;;5074481;28;20451;-43
2022/02/17 10:46:07;;;;;;;24.13;22.93;;;19.50;54.70;;;;;;5074444;28;20927;-43
2022/02/17 10:48:34;;;;;;;23.90;22.70;;;19.50;54.80;;;;;;5074171;28;20497;-41
2022/02/17 10:51:06;;;;;;;24.73;23.53;;;19.50;54.70;;;;;;5074473;28;20439;-42
2022/02/17 10:53:40;;;;;;;23.80;22.60;;;19.50;55.00;;;;;;5074487;28;20443;-44
2022/02/17 10:56:07;;;;;;;26.33;24.90;;;19.50;54.10;;;;;;5074269;28;20536;-41
2022/02/17 10:58:37;;;;;;;26.17;24.90;;;19.50;54.70;;;;;;5074067;28;20471;-43
2022/02/17 11:01:06;;;;;;;25.57;24.30;;;19.50;53.80;;;;;;5074222;28;20860;-48
2022/02/17 11:03:35;;;;;;;24.17;22.97;;;19.40;54.00;;;;;;5074252;28;20454;-42
2022/02/17 11:06:02;;;;;;;24.20;23.10;;;19.40;54.20;;;;;;5074249;28;20440;-45
2022/02/17 11:08:29;;;;;;;26.93;25.43;;;19.40;53.70;;;;;;5073881;28;20447;-44
2022/02/17 11:10:57;;;;;;;26.90;25.50;;;19.40;53.30;;;;;;5073993;28;20454;-44
2022/02/17 11:13:25;;;;;;;26.30;24.77;;;19.40;53.50;;;;;;5073965;28;20451;-41
2022/02/17 11:15:54;;;;;;;26.23;24.97;;;19.30;53.00;;;;;;5073898;28;20624;-45
2022/02/17 11:18:22;;;;;;;26.43;24.97;;;19.40;53.40;;;;;;5073305;28;20500;-43
2022/02/17 11:20:50;;;;;;;26.57;25.27;;;19.50;53.50;;;;;;5073827;28;20447;-42
2022/02/17 11:23:18;;;;;;;27.00;25.40;;;19.50;53.30;;;;;;5073830;28;20447;-44
2022/02/17 11:25:46;;;;;;;26.73;25.43;;;19.50;53.40;;;;;;5073956;28;20447;-46
2022/02/17 11:28:16;;;;;;;26.67;25.20;;;19.60;53.00;;;;;;5073464;28;20456;-43
2022/02/17 11:30:44;;;;;;;25.40;24.30;;;19.70;52.30;;;;;;5073683;28;20447;-45
2022/02/17 11:33:28;;;;;;;26.00;24.80;;;19.90;52.30;;;;;;5073634;28;20812;-42
2022/02/17 11:36:00;;;;;;;27.37;25.70;;;20.10;51.60;;;;;;5072312;28;20459;-45
2022/02/17 11:38:35;;;;;;;26.70;25.30;;;20.20;51.10;;;;;;5073188;28;20447;-48
2022/02/17 11:41:08;;;;;;;27.13;25.83;;;20.40;51.00;;;;;;5073530;28;20806;-42
2022/02/17 11:43:37;;;;;;;28.80;27.40;;;20.50;50.60;;;;;;5073655;28;20962;-44
2022/02/17 11:46:05;;;;;;;28.00;26.80;;;20.70;50.10;;;;;;5073456;28;20547;-46
2022/02/17 11:48:37;;;;;;;27.37;26.07;;;21.10;50.70;;;;;;5073116;28;20470;-45
2022/02/17 11:51:18;;;;;;;29.03;27.63;;;22.40;50.00;;;;;;5073753;28;20455;-46
2022/02/17 11:53:46;;;;;;;29.03;27.73;;;23.90;47.30;;;;;;5073495;28;20447;-45
2022/02/17 11:56:50;;;;;;;25.27;24.07;;;24.70;45.10;;;;;;5073222;28;20490;-44
2022/02/17 11:59:29;;;;;;;27.43;26.13;;;25.50;43.30;;;;;;5072991;28;20462;-44
2022/02/17 12:01:57;;;;;;;28.07;26.67;;;26.50;41.70;;;;;;5073166;28;20440;-45
2022/02/17 12:04:27;;;;;;;27.40;26.10;;;27.10;40.20;;;;;;5072944;28;20451;-40
2022/02/17 12:06:56;;;;;;;26.67;25.37;;;27.60;39.00;;;;;;5072955;28;20814;-43
2022/02/17 12:09:41;;;;;;;25.60;24.40;;;27.80;38.10;;;;;;5072581;28;20463;-46
2022/02/17 12:12:38;;;;;;;28.23;26.73;;;27.70;37.50;;;;;;5072919;28;20467;-43
2022/02/17 12:15:16;;;;;;;25.97;24.77;;;27.90;37.30;;;;;;5072924;28;20443;-47
2022/02/17 12:17:46;;;;;;;26.93;25.53;;;28.10;36.70;;;;;;5072466;28;20490;-46
2022/02/17 12:20:16;;;;;;;24.40;23.30;;;27.90;36.10;;;;;;5072881;28;20533;-42
2022/02/17 12:22:51;;;;;;;27.43;26.13;;;27.10;36.30;;;;;;5072587;28;20863;-45
2022/02/17 12:25:24;;;;;;;25.30;24.10;;;26.60;37.20;;;;;;5072445;28;20443;-46
2022/02/17 12:27:52;;;;;;;25.90;24.60;;;26.20;37.80;;;;;;5071743;28;20459;-42
2022/02/17 12:30:26;;;;;;;24.57;23.47;;;25.90;38.40;;;;;;5072037;28;20994;-43
2022/02/17 12:33:03;;;;;;;25.90;24.67;;;25.30;38.80;;;;;;5072425;28;20443;-45
2022/02/17 12:35:30;;;;;;;24.87;23.73;;;24.70;39.60;;;;;;5072413;28;20447;-44
2022/02/17 12:38:06;;;;;;;26.50;25.20;;;24.30;40.20;;;;;;5071889;28;20478;-45